Terminal Aerodrome Forecast
Issued by NWS

Home | Current Version | Previous Version | Text Only | Print | Product List | Glossary On
Versions: 1 2 3 4 5 6 7 8 9 10 11 12 13 14 15 16 17 18 19
767
FTUS43 KAPX 261739
TAFPLN
TAF
KPLN 261739Z 2618/2718 10010KT P6SM -SHRA OVC005
     FM262300 10010KT 3SM -SHRA BR OVC015
     FM270100 08006KT 2SM -SHRA BR OVC008
     FM270500 00000KT 1 1/2SM -SHRA BR OVC006
     FM271200 32004KT 4SM BR OVC005
     FM271600 31006KT P6SM OVC009=

USA.gov is the U.S. government's official web portal to all federal, state and local government web resources and services.